Airfield :
LOGIN :

Register | Disclaimer

   EN    FR    IT 

 










Legend :    VFR   Marginal VFR   IFR   Intensive IFR   Very Intensive IFR
Visi :
Ceiling :
>= 8 km
>= 3000ft
5 to 8 km
1000 to 3000 ft
1500m to 5 km
500 to 1000 ft
800 to 1500m
200 to 500 ft
< 800m
< 200 ft
Symbols :   Thunderstorms  Fog  Heavy snow  Heavy precipitations  Wind > 20 kt
SIGMETs :     Misc.  Thunderstorms  Icing  Turbulence  Mountain Waves  Volcanic Ashes






- Airport Elevation : 194 ft


EBCV - Chièvres

CURRENT METAR :
  • 191455Z AUTO 17008KT 9999 NCD 13/07 Q1017 BLU

EXPIRED METARs :
  • 191425Z AUTO 17008KT 9999 NCD 14/07 Q1018 BLU
  • 191355Z AUTO 16009KT 9999 FEW024/// 14/08 Q1018 BLU
  • 191325Z AUTO 17008KT 9999 FEW028/// 14/09 Q1018 BLU
  • 191255Z AUTO 18008KT 9999 FEW028/// 13/08 Q1019 BLU
  • 191225Z AUTO 19008KT 9999 NCD 14/08 Q1019 BLU

TAF TAF EBCV
Valid from the 19 at 13:00 until the 19 at 22:00 UTC


191141Z 1913/1922 16008KT 9999 FEW025 SCT250 BY EBWM



MET'MAP, your aeronautical weather chart ! - Copyright ORBIFLY December 2007 - Disclaimer

ORBIFLY MET'MAP TEAM :

Programming & Development : Alexandra Zaïnal
Concept & original design : Baudouin d'Aumeries
Assistance for programming : Marc-Olivier Méhu
Technical & hardware support : Manuel Goepfert

Contact : metmap@orbifly.com




SOURCES & CREDITS :

   NOAA